Lockhart, Minnesota
Current Conditions -  °F | °C
As of 6:55 PM on Saturday 22 Nov 2014 (Local Time) from K3N8 Reporting Station
Clear Clear  
Wind Chill: 31°   Ceiling: Unl
Heat Index: 38°   Visibility: 10mi
Dew Point: 29°   Wind: 9mph
Humidity: 72%   Direction: 150°SSE
Pressure: 29.43"   Gusts: NA
Location:  47.3701°N, 96.4867°W
Report Text: K3N8 230055Z AUTO 15008KT 10SM CLR 03/M01 A2943 RMK AO2 T00311015
Loading
Personal Weather Stations






























Interactive Weather Map New forecast layout! Learn more

10-Day Weather Forecast

Advertisements
Track Severe Weather on mobile